Time,TemperatureF,DewpointF,PressureIn,WindDirection,WindDirectionDegrees,WindSpeedMPH,WindSpeedGustMPH,Humidity,HourlyPrecipIn,Conditions,Clouds,dailyrainin,SoftwareType,DateUTC
2013-10-08 00:06:00,60.1,43.9,29.98,West,270,0.0,-999.0,55,-99.99,,,0.00,Acu-Link.com,2013-10-08 07:06:00,
2013-10-08 00:21:00,59.2,43.5,29.98,West,270,0.0,-999.0,56,-99.99,,,0.00,Acu-Link.com,2013-10-08 07:21:00,
2013-10-08 00:37:00,58.8,43.6,29.98,West,270,0.0,-999.0,57,-99.99,,,0.00,Acu-Link.com,2013-10-08 07:37:00,
2013-10-08 00:52:00,58.1,43.4,29.98,West,270,0.0,-999.0,58,-99.99,,,0.00,Acu-Link.com,2013-10-08 07:52:00,
2013-10-08 01:07:00,58.1,42.9,29.98,West,270,0.0,-999.0,57,-99.99,,,0.00,Acu-Link.com,2013-10-08 08:07:00,
2013-10-08 01:22:00,57.0,42.8,29.98,West,270,0.0,-999.0,59,-99.99,,,0.00,Acu-Link.com,2013-10-08 08:22:00,
2013-10-08 01:37:00,57.4,43.6,29.98,West,270,0.0,-999.0,60,-99.99,,,0.00,Acu-Link.com,2013-10-08 08:37:00,
2013-10-08 01:52:00,58.3,43.6,29.98,West,270,0.0,-999.0,58,-99.99,,,0.00,Acu-Link.com,2013-10-08 08:52:00,
2013-10-08 02:08:00,55.6,43.2,29.98,West,270,0.0,-999.0,63,-99.99,,,0.00,Acu-Link.com,2013-10-08 09:08:00,
2013-10-08 02:23:00,55.9,43.1,29.99,West,270,0.0,-999.0,62,-99.99,,,0.00,Acu-Link.com,2013-10-08 09:23:00,
2013-10-08 02:38:00,55.4,43.4,29.99,West,270,0.0,-999.0,64,-99.99,,,0.00,Acu-Link.com,2013-10-08 09:38:00,
2013-10-08 02:53:00,52.7,43.9,29.99,West,270,0.0,-999.0,72,-99.99,,,0.00,Acu-Link.com,2013-10-08 09:53:00,
2013-10-08 03:08:00,52.2,43.8,29.98,West,270,0.0,-999.0,73,-99.99,,,0.00,Acu-Link.com,2013-10-08 10:08:00,
2013-10-08 03:24:00,50.5,42.9,29.97,West,270,0.0,-999.0,75,-99.99,,,0.00,Acu-Link.com,2013-10-08 10:24:00,
2013-10-08 03:39:00,50.4,43.1,29.96,West,270,0.0,-999.0,76,-99.99,,,0.00,Acu-Link.com,2013-10-08 10:39:00,
2013-10-08 03:54:00,51.4,43.4,29.96,West,270,0.0,-999.0,74,-99.99,,,0.00,Acu-Link.com,2013-10-08 10:54:00,
2013-10-08 04:10:00,51.1,42.8,29.96,West,270,0.0,-999.0,73,-99.99,,,0.00,Acu-Link.com,2013-10-08 11:10:00,
2013-10-08 04:25:00,50.7,43.1,29.96,West,270,0.0,-999.0,75,-99.99,,,0.00,Acu-Link.com,2013-10-08 11:25:00,
2013-10-08 04:40:00,50.2,42.9,29.96,West,270,0.0,-999.0,76,-99.99,,,0.00,Acu-Link.com,2013-10-08 11:40:00,
2013-10-08 04:56:00,49.6,42.7,29.95,West,270,0.0,-999.0,77,-99.99,,,0.00,Acu-Link.com,2013-10-08 11:56:00,
2013-10-08 05:11:00,49.8,42.5,29.95,West,270,0.0,-999.0,76,-99.99,,,0.00,Acu-Link.com,2013-10-08 12:11:00,
2013-10-08 05:26:00,50.2,43.3,29.96,West,270,0.0,-999.0,77,-99.99,,,0.00,Acu-Link.com,2013-10-08 12:26:00,
2013-10-08 05:41:00,49.3,43.1,29.96,West,270,0.0,-999.0,79,-99.99,,,0.00,Acu-Link.com,2013-10-08 12:41:00,
2013-10-08 05:56:00,48.6,42.7,29.96,West,270,0.0,-999.0,80,-99.99,,,0.00,Acu-Link.com,2013-10-08 12:56:00,
2013-10-08 06:12:00,48.2,42.3,29.96,West,270,0.0,-999.0,80,-99.99,,,0.00,Acu-Link.com,2013-10-08 13:12:00,
2013-10-08 06:27:00,47.8,41.9,29.96,West,270,0.0,-999.0,80,-99.99,,,0.00,Acu-Link.com,2013-10-08 13:27:00,
2013-10-08 06:42:00,48.7,41.8,29.96,West,270,0.0,-999.0,77,-99.99,,,0.00,Acu-Link.com,2013-10-08 13:42:00,
2013-10-08 06:58:00,47.7,41.8,29.97,West,270,0.0,-999.0,80,-99.99,,,0.00,Acu-Link.com,2013-10-08 13:58:00,
2013-10-08 07:13:00,47.3,41.4,29.97,West,270,0.0,-999.0,80,-99.99,,,0.00,Acu-Link.com,2013-10-08 14:13:00,
2013-10-08 07:29:00,47.3,42.1,29.98,West,270,0.0,-999.0,82,-99.99,,,0.00,Acu-Link.com,2013-10-08 14:29:00,
2013-10-08 07:44:00,48.7,43.1,29.99,West,270,0.0,-999.0,81,-99.99,,,0.00,Acu-Link.com,2013-10-08 14:44:00,
2013-10-08 07:59:00,49.3,43.7,30.00,WNW,292,1.7,-999.0,81,-99.99,,,0.00,Acu-Link.com,2013-10-08 14:59:00,
2013-10-08 08:15:00,51.3,44.7,30.00,WNW,292,1.7,-999.0,78,-99.99,,,0.00,Acu-Link.com,2013-10-08 15:15:00,
2013-10-08 08:30:00,51.8,44.8,30.01,WNW,292,1.7,-999.0,77,-99.99,,,0.00,Acu-Link.com,2013-10-08 15:30:00,
2013-10-08 08:45:00,53.1,45.4,30.01,NW,315,2.7,-999.0,75,-99.99,,,0.00,Acu-Link.com,2013-10-08 15:45:00,
2013-10-08 09:00:00,55.9,44.3,30.00,NW,315,2.2,-999.0,65,-99.99,,,0.00,Acu-Link.com,2013-10-08 16:00:00,
2013-10-08 09:16:00,58.3,44.5,30.00,WNW,292,2.2,-999.0,60,-99.99,,,0.00,Acu-Link.com,2013-10-08 16:16:00,
2013-10-08 09:31:00,60.4,43.2,30.00,WNW,292,2.7,-999.0,53,-99.99,,,0.00,Acu-Link.com,2013-10-08 16:31:00,
2013-10-08 09:46:00,61.9,43.1,30.00,NW,315,4.2,-999.0,50,-99.99,,,0.00,Acu-Link.com,2013-10-08 16:46:00,
2013-10-08 10:01:00,62.6,42.1,29.99,NNE,22,3.2,-999.0,47,-99.99,,,0.00,Acu-Link.com,2013-10-08 17:01:00,
2013-10-08 10:16:00,64.2,43.5,29.98,WNW,292,1.1,-999.0,47,-99.99,,,0.00,Acu-Link.com,2013-10-08 17:16:00,
2013-10-08 10:32:00,65.7,43.8,29.98,WNW,292,4.2,-999.0,45,-99.99,,,0.00,Acu-Link.com,2013-10-08 17:32:00,
2013-10-08 10:47:00,66.9,44.3,29.97,NE,45,4.7,-999.0,44,-99.99,,,0.00,Acu-Link.com,2013-10-08 17:47:00,
2013-10-08 11:02:00,68.0,45.3,29.97,North,0,5.3,-999.0,44,-99.99,,,0.00,Acu-Link.com,2013-10-08 18:02:00,
2013-10-08 11:17:00,70.0,45.2,29.97,NE,45,2.7,-999.0,41,-99.99,,,0.00,Acu-Link.com,2013-10-08 18:17:00,
2013-10-08 11:33:00,71.1,44.9,29.96,West,270,3.2,-999.0,39,-99.99,,,0.00,Acu-Link.com,2013-10-08 18:33:00,
2013-10-08 11:48:00,72.9,45.1,29.95,ENE,67,6.3,-999.0,37,-99.99,,,0.00,Acu-Link.com,2013-10-08 18:48:00,
2013-10-08 12:03:00,74.1,45.4,29.94,SW,225,2.7,-999.0,36,-99.99,,,0.00,Acu-Link.com,2013-10-08 19:03:00,
2013-10-08 12:18:00,74.8,44.5,29.94,NNW,337,3.7,-999.0,34,-99.99,,,0.00,Acu-Link.com,2013-10-08 19:18:00,
2013-10-08 12:34:00,75.7,43.7,29.93,NE,45,4.2,-999.0,32,-99.99,,,0.00,Acu-Link.com,2013-10-08 19:34:00,
2013-10-08 12:49:00,77.2,44.2,29.92,NW,315,2.7,-999.0,31,-99.99,,,0.00,Acu-Link.com,2013-10-08 19:49:00,
2013-10-08 13:05:00,78.1,44.1,29.91,NNE,22,2.2,-999.0,30,-99.99,,,0.00,Acu-Link.com,2013-10-08 20:05:00,
2013-10-08 13:20:00,78.3,43.4,29.91,SW,225,2.7,-999.0,29,-99.99,,,0.00,Acu-Link.com,2013-10-08 20:20:00,
2013-10-08 13:35:00,79.2,43.3,29.89,West,270,4.7,-999.0,28,-99.99,,,0.00,Acu-Link.com,2013-10-08 20:35:00,
2013-10-08 13:50:00,81.3,43.1,29.88,ENE,67,5.3,-999.0,26,-99.99,,,0.00,Acu-Link.com,2013-10-08 20:50:00,
2013-10-08 14:06:00,81.1,41.9,29.87,West,270,3.7,-999.0,25,-99.99,,,0.00,Acu-Link.com,2013-10-08 21:06:00,
2013-10-08 14:21:00,81.0,41.8,29.87,West,270,4.2,-999.0,25,-99.99,,,0.00,Acu-Link.com,2013-10-08 21:21:00,
2013-10-08 14:36:00,81.3,41.0,29.86,ENE,67,1.1,-999.0,24,-99.99,,,0.00,Acu-Link.com,2013-10-08 21:36:00,
2013-10-08 14:52:00,80.8,40.6,29.85,West,270,1.7,-999.0,24,-99.99,,,0.00,Acu-Link.com,2013-10-08 21:52:00,
2013-10-08 15:07:00,83.1,41.4,29.84,West,270,3.7,-999.0,23,-99.99,,,0.00,Acu-Link.com,2013-10-08 22:07:00,
2013-10-08 15:22:00,82.9,40.1,29.83,NNE,22,2.7,-999.0,22,-99.99,,,0.00,Acu-Link.com,2013-10-08 22:22:00,
2013-10-08 15:37:00,82.9,41.3,29.83,North,0,3.7,-999.0,23,-99.99,,,0.00,Acu-Link.com,2013-10-08 22:37:00,
2013-10-08 15:52:00,82.2,41.8,29.81,West,270,2.7,-999.0,24,-99.99,,,0.00,Acu-Link.com,2013-10-08 22:52:00,
2013-10-08 16:08:00,81.7,40.3,29.81,WNW,292,2.7,-999.0,23,-99.99,,,0.00,Acu-Link.com,2013-10-08 23:08:00,
2013-10-08 16:23:00,82.0,42.7,29.80,NNE,22,3.7,-999.0,25,-99.99,,,0.00,Acu-Link.com,2013-10-08 23:23:00,
2013-10-08 16:38:00,80.6,41.5,29.80,North,0,3.2,-999.0,25,-99.99,,,0.00,Acu-Link.com,2013-10-08 23:38:00,
2013-10-08 16:53:00,80.4,42.4,29.79,NW,315,3.7,-999.0,26,-99.99,,,0.00,Acu-Link.com,2013-10-08 23:53:00,
2013-10-08 17:09:00,80.1,42.1,29.79,WNW,292,3.2,-999.0,26,-99.99,,,0.00,Acu-Link.com,2013-10-09 00:09:00,
2013-10-08 17:24:00,80.6,42.5,29.78,NNW,337,2.7,-999.0,26,-99.99,,,0.00,Acu-Link.com,2013-10-09 00:24:00,
2013-10-08 17:39:00,78.8,42.9,29.79,North,0,2.2,-999.0,28,-99.99,,,0.00,Acu-Link.com,2013-10-09 00:39:00,
2013-10-08 17:54:00,77.5,43.6,29.79,NNE,22,2.7,-999.0,30,-99.99,,,0.00,Acu-Link.com,2013-10-09 00:54:00,
2013-10-08 18:10:00,75.9,44.7,29.79,North,0,2.2,-999.0,33,-99.99,,,0.00,Acu-Link.com,2013-10-09 01:10:00,
2013-10-08 18:25:00,74.8,45.3,29.79,NNE,22,3.2,-999.0,35,-99.99,,,0.00,Acu-Link.com,2013-10-09 01:25:00,
2013-10-08 18:40:00,73.8,45.2,29.79,North,0,2.2,-999.0,36,-99.99,,,0.00,Acu-Link.com,2013-10-09 01:40:00,
2013-10-08 18:55:00,72.5,44.7,29.79,NNW,337,3.2,-999.0,37,-99.99,,,0.00,Acu-Link.com,2013-10-09 01:55:00,
2013-10-08 19:11:00,71.8,44.8,29.79,NNW,337,2.2,-999.0,38,-99.99,,,0.00,Acu-Link.com,2013-10-09 02:11:00,
2013-10-08 19:26:00,71.1,45.5,29.78,North,0,0.0,-999.0,40,-99.99,,,0.00,Acu-Link.com,2013-10-09 02:26:00,
2013-10-08 19:41:00,70.0,45.2,29.79,NNW,337,1.7,-999.0,41,-99.99,,,0.00,Acu-Link.com,2013-10-09 02:41:00,
2013-10-08 19:57:00,68.7,46.5,29.79,NNW,337,1.7,-999.0,45,-99.99,,,0.00,Acu-Link.com,2013-10-09 02:57:00,
2013-10-08 20:12:00,67.8,45.7,29.79,NNW,337,1.7,-999.0,45,-99.99,,,0.00,Acu-Link.com,2013-10-09 03:12:00,
2013-10-08 20:27:00,66.7,45.8,29.79,NNW,337,0.0,-999.0,47,-99.99,,,0.00,Acu-Link.com,2013-10-09 03:27:00,
2013-10-08 20:42:00,66.0,45.7,29.78,NNW,337,1.7,-999.0,48,-99.99,,,0.00,Acu-Link.com,2013-10-09 03:42:00,
2013-10-08 20:57:00,65.5,46.4,29.77,NNW,337,1.7,-999.0,50,-99.99,,,0.00,Acu-Link.com,2013-10-09 03:57:00,
2013-10-08 21:13:00,64.6,46.1,29.78,NNW,337,0.0,-999.0,51,-99.99,,,0.00,Acu-Link.com,2013-10-09 04:13:00,
2013-10-08 21:28:00,63.3,45.9,29.77,NNW,337,0.0,-999.0,53,-99.99,,,0.00,Acu-Link.com,2013-10-09 04:28:00,
2013-10-08 21:43:00,62.1,45.7,29.77,NNW,337,0.0,-999.0,55,-99.99,,,0.00,Acu-Link.com,2013-10-09 04:43:00,
2013-10-08 21:59:00,61.7,45.8,29.79,NNW,337,0.0,-999.0,56,-99.99,,,0.00,Acu-Link.com,2013-10-09 04:59:00,
2013-10-08 22:14:00,60.8,45.5,29.80,NNW,337,0.0,-999.0,57,-99.99,,,0.00,Acu-Link.com,2013-10-09 05:14:00,
2013-10-08 22:29:00,60.1,45.3,29.80,NNW,337,0.0,-999.0,58,-99.99,,,0.00,Acu-Link.com,2013-10-09 05:29:00,
2013-10-08 22:45:00,60.6,45.7,29.80,NNW,337,0.0,-999.0,58,-99.99,,,0.00,Acu-Link.com,2013-10-09 05:45:00,
2013-10-08 23:02:00,59.9,45.5,29.81,NNW,337,0.0,-999.0,59,-99.99,,,0.00,Acu-Link.com,2013-10-09 06:02:00,
2013-10-08 23:17:00,59.9,45.5,29.81,NNW,337,0.0,-999.0,59,-99.99,,,0.00,Acu-Link.com,2013-10-09 06:17:00,
2013-10-08 23:34:00,59.7,45.3,29.81,NNW,337,0.0,-999.0,59,-99.99,,,0.00,Acu-Link.com,2013-10-09 06:34:00,
2013-10-08 23:49:00,59.4,45.1,29.80,NNW,337,0.0,-999.0,59,-99.99,,,0.00,Acu-Link.com,2013-10-09 06:49:00,